createdAt,value
2022-12-29T00:01:37.713Z,96703.56
2022-12-29T00:04:04.072Z,96727.47
2022-12-29T00:06:30.392Z,96706.69
2022-12-29T00:08:56.661Z,96735.91
2022-12-29T00:11:22.992Z,96704.81
2022-12-29T00:13:49.313Z,96710.66
2022-12-29T00:16:15.705Z,96714.88
2022-12-29T00:18:42.078Z,96707.44
2022-12-29T00:21:08.427Z,96714.03
2022-12-29T00:23:34.692Z,96719.06
2022-12-29T00:26:00.975Z,96704.44
2022-12-29T00:28:27.309Z,96708.69
2022-12-29T00:30:53.652Z,96692.72
2022-12-29T00:33:19.999Z,96709.94
2022-12-29T00:35:46.287Z,96678.59
2022-12-29T00:38:12.543Z,96698.50
2022-12-29T00:40:38.893Z,96696.34
2022-12-29T00:43:05.181Z,96699.28
2022-12-29T00:45:31.506Z,96700.56
2022-12-29T00:47:57.823Z,96719.69
2022-12-29T00:50:24.204Z,96725.50
2022-12-29T00:52:50.694Z,96707.19
2022-12-29T00:55:17.472Z,96706.88
2022-12-29T00:57:44.268Z,96709.00
2022-12-29T01:00:10.567Z,96698.63
2022-12-29T01:02:37.086Z,96716.94
2022-12-29T01:05:03.432Z,96716.63
2022-12-29T01:07:29.708Z,96676.25
2022-12-29T01:09:56.000Z,96694.56
2022-12-29T01:12:22.351Z,96679.66
2022-12-29T01:14:48.926Z,96674.59
2022-12-29T01:17:15.380Z,96677.78
2022-12-29T01:19:41.735Z,96679.06
2022-12-29T01:22:08.190Z,96686.25
2022-12-29T01:24:34.553Z,96668.19
2022-12-29T01:27:00.796Z,96676.38
2022-12-29T01:29:27.192Z,96677.69
2022-12-29T01:31:53.541Z,96663.59
2022-12-29T01:34:19.945Z,96666.78
2022-12-29T01:36:46.202Z,96659.84
2022-12-29T01:39:12.496Z,96663.56
2022-12-29T01:41:38.877Z,96664.09
2022-12-29T01:44:05.168Z,96653.72
2022-12-29T01:46:31.489Z,96655.56
2022-12-29T01:49:01.971Z,96669.34
2022-12-29T01:51:28.323Z,96666.69
2022-12-29T01:53:54.564Z,96658.97
2022-12-29T01:56:21.036Z,96675.13
2022-12-29T01:58:47.308Z,96657.09
2022-12-29T02:01:14.189Z,96666.88
2022-12-29T02:03:40.821Z,96666.09
2022-12-29T02:06:07.157Z,96658.38
2022-12-29T02:08:33.744Z,96649.91
2022-12-29T02:11:00.425Z,96649.91
2022-12-29T02:13:26.704Z,96646.44
2022-12-29T02:15:52.939Z,96658.34
2022-12-29T02:18:19.244Z,96651.19
2022-12-29T02:20:46.780Z,96656.50
2022-12-29T02:23:13.136Z,96644.56
2022-12-29T02:25:39.379Z,96650.63
2022-12-29T02:28:05.733Z,96629.66
2022-12-29T02:30:32.002Z,96620.91
2022-12-29T02:32:58.306Z,96631.00
2022-12-29T02:35:24.610Z,96614.28
2022-12-29T02:37:50.953Z,96629.63
2022-12-29T02:40:17.350Z,96626.97
2022-12-29T02:42:43.617Z,96630.69
2022-12-29T02:45:09.866Z,96642.09
2022-12-29T02:47:36.345Z,96622.19
2022-12-29T02:50:02.600Z,96623.22
2022-12-29T02:52:28.891Z,96641.00
2022-12-29T02:54:55.276Z,96612.88
2022-12-29T02:57:21.572Z,96621.91
2022-12-29T02:59:47.851Z,96631.69
2022-12-29T03:02:14.256Z,96616.03
2022-12-29T03:04:40.689Z,96622.16
2022-12-29T03:07:07.179Z,96607.28
2022-12-29T03:09:34.317Z,96615.47
2022-12-29T03:12:00.723Z,96613.91
2022-12-29T03:14:26.995Z,96598.75
2022-12-29T03:16:53.349Z,96582.06
2022-12-29T03:19:19.631Z,96585.75
2022-12-29T03:21:45.941Z,96573.81
2022-12-29T03:24:12.215Z,96579.13
2022-12-29T03:26:38.657Z,96564.25
2022-12-29T03:29:04.964Z,96579.34
2022-12-29T03:31:31.340Z,96587.31
2022-12-29T03:33:57.618Z,96586.78
2022-12-29T03:36:23.923Z,96581.47
2022-12-29T03:38:50.211Z,96571.91
2022-12-29T03:41:16.496Z,96568.44
2022-12-29T03:43:43.001Z,96580.94
2022-12-29T03:46:09.385Z,96570.59
2022-12-29T03:48:35.677Z,96565.53
2022-12-29T03:51:02.132Z,96572.69
2022-12-29T03:53:28.620Z,96576.16
2022-12-29T03:55:54.923Z,96563.09
2022-12-29T03:58:21.189Z,96569.22
2022-12-29T04:00:47.538Z,96588.84
2022-12-29T04:03:13.836Z,96610.06
2022-12-29T04:05:40.134Z,96589.63
2022-12-29T04:08:06.450Z,96583.00
2022-12-29T04:10:32.729Z,96560.97
2022-12-29T04:12:58.992Z,96577.94
2022-12-29T04:15:25.403Z,96580.59
2022-12-29T04:17:51.754Z,96563.31
2022-12-29T04:20:18.020Z,96563.59
2022-12-29T04:22:44.544Z,96583.97
2022-12-29T04:25:10.784Z,96544.22
2022-12-29T04:27:37.137Z,96566.50
2022-12-29T04:30:03.476Z,96555.06
2022-12-29T04:32:29.821Z,96568.59
2022-12-29T04:34:56.107Z,96599.59
2022-12-29T04:37:22.406Z,96576.00
2022-12-29T04:39:48.655Z,96569.88
2022-12-29T04:42:14.921Z,96560.34
2022-12-29T04:44:45.032Z,96582.34
2022-12-29T04:47:11.665Z,96575.44
2022-12-29T04:49:38.046Z,96540.59
2022-12-29T04:52:04.335Z,96568.00
2022-12-29T04:54:30.673Z,96583.91
2022-12-29T04:56:56.961Z,96572.50
2022-12-29T04:59:23.653Z,96563.75
2022-12-29T05:01:50.014Z,96566.41
2022-12-29T05:04:16.354Z,96565.59
2022-12-29T05:06:42.678Z,96573.56
2022-12-29T05:09:08.971Z,96571.16
2022-12-29T05:11:35.679Z,96577.50
2022-12-29T05:14:02.058Z,96581.19
2022-12-29T05:16:28.357Z,96564.50
2022-12-29T05:18:54.798Z,96576.94
2022-12-29T05:21:21.198Z,96566.59
2022-12-29T05:23:47.555Z,96565.81
2022-12-29T05:26:13.869Z,96560.50
2022-12-29T05:28:41.264Z,96560.50
2022-12-29T05:31:07.548Z,96581.72
2022-12-29T05:33:34.009Z,96543.16
2022-12-29T05:36:00.324Z,96541.41
2022-12-29T05:38:26.793Z,96560.78
2022-12-29T05:40:53.076Z,96566.28
2022-12-29T05:43:19.387Z,96554.66
2022-12-29T05:45:45.662Z,96571.59
2022-12-29T05:48:11.937Z,96555.69
2022-12-29T05:50:38.174Z,96559.41
2022-12-29T05:53:04.464Z,96557.81
2022-12-29T05:55:30.728Z,96564.72
2022-12-29T05:57:57.140Z,96572.09
2022-12-29T06:00:23.550Z,96572.09
2022-12-29T06:02:50.033Z,96579.25
2022-12-29T06:05:17.622Z,96573.16
2022-12-29T06:07:43.925Z,96541.63
2022-12-29T06:10:10.370Z,96556.72
2022-12-29T06:12:36.705Z,96537.34
2022-12-29T06:15:02.954Z,96535.50
2022-12-29T06:17:29.245Z,96541.84
2022-12-29T06:19:55.571Z,96557.75
2022-12-29T06:22:21.838Z,96577.34
2022-12-29T06:24:48.156Z,96577.59
2022-12-29T06:27:14.618Z,96565.16
2022-12-29T06:29:40.916Z,96577.59
2022-12-29T06:32:07.483Z,96579.69
2022-12-29T06:34:33.765Z,96576.25
2022-12-29T06:37:00.060Z,96574.41
2022-12-29T06:39:26.462Z,96575.47
2022-12-29T06:41:52.768Z,96587.91
2022-12-29T06:44:19.392Z,96560.59
2022-12-29T06:46:45.739Z,96584.44
2022-12-29T06:49:11.989Z,96588.72
2022-12-29T06:51:38.329Z,96596.88
2022-12-29T06:54:05.152Z,96577.31
2022-12-29T06:56:31.431Z,96581.00
2022-12-29T06:58:57.718Z,96596.09
2022-12-29T07:01:24.042Z,96583.13
2022-12-29T07:03:50.360Z,96600.59
2022-12-29T07:06:16.912Z,96609.34
2022-12-29T07:08:43.641Z,96595.28
2022-12-29T07:11:09.931Z,96590.81
2022-12-29T07:13:36.221Z,96594.00
2022-12-29T07:16:02.500Z,96602.41
2022-12-29T07:18:28.782Z,96612.19
2022-12-29T07:20:56.316Z,96620.59
2022-12-29T07:23:25.789Z,96618.13
2022-12-29T07:25:52.312Z,96609.00
2022-12-29T07:28:18.832Z,96616.25
2022-12-29T07:30:45.075Z,96613.94
2022-12-29T07:33:11.324Z,96628.09
2022-12-29T07:35:37.641Z,96615.88
2022-12-29T07:38:04.029Z,96617.25
2022-12-29T07:40:30.375Z,96618.63
2022-12-29T07:42:56.641Z,96619.19
2022-12-29T07:45:22.995Z,96631.16
2022-12-29T07:47:52.361Z,96630.13
2022-12-29T07:50:18.735Z,96629.09
2022-12-29T07:52:44.994Z,96630.97
2022-12-29T07:55:11.317Z,96640.81
2022-12-29T07:57:37.787Z,96648.28
2022-12-29T08:00:06.208Z,96641.13
2022-12-29T08:02:32.563Z,96644.06
2022-12-29T08:04:59.016Z,96635.59
2022-12-29T08:07:25.296Z,96648.34
2022-12-29T08:09:51.698Z,96650.47
2022-12-29T08:12:17.950Z,96655.53
2022-12-29T08:14:44.611Z,96665.91
2022-12-29T08:17:10.885Z,96635.31
2022-12-29T08:19:37.212Z,96669.09
2022-12-29T08:22:03.457Z,96667.53
2022-12-29T08:24:29.756Z,96661.94
2022-12-29T08:26:56.138Z,96669.44
2022-12-29T08:29:22.458Z,96660.91
2022-12-29T08:31:48.796Z,96668.63
2022-12-29T08:34:15.135Z,96676.06
2022-12-29T08:36:41.423Z,96657.19
2022-12-29T08:39:07.681Z,96664.91
2022-12-29T08:41:34.088Z,96668.09
2022-12-29T08:44:00.470Z,96674.22
2022-12-29T08:46:26.958Z,96676.88
2022-12-29T08:48:53.405Z,96693.38
2022-12-29T08:51:24.502Z,96717.06
2022-12-29T08:53:51.279Z,96742.59
2022-12-29T08:56:17.541Z,96720.25
2022-12-29T08:58:43.833Z,96694.47
2022-12-29T09:01:10.143Z,96696.84
2022-12-29T09:06:22.958Z,96684.09
2022-12-29T09:08:49.249Z,96687.53
2022-12-29T09:11:15.599Z,96692.59
2022-12-29T09:13:41.959Z,96684.59
2022-12-29T09:16:08.305Z,96688.88
2022-12-29T09:18:34.667Z,96683.56
2022-12-29T09:21:01.246Z,96690.47
2022-12-29T09:23:27.575Z,96682.47
2022-12-29T09:25:53.901Z,96688.34
2022-12-29T09:28:20.243Z,96696.06
2022-12-29T09:30:46.523Z,96693.13
2022-12-29T09:33:12.818Z,96691.00
2022-12-29T09:35:39.167Z,96694.22
2022-12-29T09:38:05.598Z,96698.22
2022-12-29T09:40:31.979Z,96689.97
2022-12-29T09:42:58.218Z,96685.19
2022-12-29T09:45:24.594Z,96681.44
2022-12-29T09:47:50.962Z,96685.72
2022-12-29T09:50:17.294Z,96695.81
2022-12-29T09:52:43.574Z,96700.63
2022-12-29T09:55:13.925Z,96710.19
2022-12-29T09:57:40.778Z,96696.63
2022-12-29T10:00:07.172Z,96697.94
2022-12-29T10:02:33.470Z,96694.25
2022-12-29T10:04:59.794Z,96695.59
2022-12-29T10:07:30.651Z,96693.72
2022-12-29T10:09:57.483Z,96683.06
2022-12-29T10:12:23.735Z,96691.31
2022-12-29T10:14:50.274Z,96690.78
2022-12-29T10:17:16.735Z,96684.94
2022-12-29T10:19:43.036Z,96681.47
2022-12-29T10:22:09.323Z,96674.03
2022-12-29T10:24:35.603Z,96679.34
2022-12-29T10:27:02.137Z,96682.00
2022-12-29T10:29:28.369Z,96690.00
2022-12-29T10:31:54.837Z,96676.97
2022-12-29T10:34:21.157Z,96682.78
2022-12-29T10:36:47.397Z,96682.28
2022-12-29T10:39:13.974Z,96687.84
2022-12-29T10:41:40.253Z,96697.47
2022-12-29T10:44:06.617Z,96684.94
2022-12-29T10:46:32.976Z,96684.13
2022-12-29T10:48:59.231Z,96687.06
2022-12-29T10:51:25.638Z,96676.94
2022-12-29T10:53:52.431Z,96686.25
2022-12-29T10:56:18.723Z,96688.41
2022-12-29T10:58:49.368Z,96685.75
2022-12-29T11:01:16.097Z,96686.50
2022-12-29T11:03:42.396Z,96682.53
2022-12-29T11:06:08.783Z,96667.34
2022-12-29T11:08:35.029Z,96660.13
2022-12-29T11:11:01.666Z,96670.53
2022-12-29T11:13:29.930Z,96668.63
2022-12-29T11:15:59.935Z,96675.59
2022-12-29T11:18:26.645Z,96670.78
2022-12-29T11:20:52.862Z,96673.44
2022-12-29T11:23:19.128Z,96682.75
2022-12-29T11:25:45.426Z,96685.94
2022-12-29T11:28:11.959Z,96684.88
2022-12-29T11:30:39.435Z,96673.16
2022-12-29T11:33:05.796Z,96681.97
2022-12-29T11:35:32.319Z,96683.53
2022-12-29T11:37:58.570Z,96682.47
2022-12-29T11:40:25.326Z,96685.13
2022-12-29T11:42:51.771Z,96691.25
2022-12-29T11:45:18.070Z,96684.06
2022-12-29T11:47:44.500Z,96692.06
2022-12-29T11:50:10.802Z,96692.88
2022-12-29T11:52:37.198Z,96706.22
2022-12-29T11:55:03.867Z,96701.94
2022-12-29T11:57:30.429Z,96698.22
2022-12-29T11:59:56.665Z,96699.00
2022-12-29T12:02:23.090Z,96705.41
2022-12-29T12:04:52.493Z,96705.41
2022-12-29T12:07:18.824Z,96700.88
2022-12-29T12:09:45.249Z,96698.22
2022-12-29T12:12:11.618Z,96696.31
2022-12-29T12:14:38.015Z,96703.53
2022-12-29T12:17:04.287Z,96704.31
2022-12-29T12:19:30.590Z,96699.00
2022-12-29T12:21:56.903Z,96696.31
2022-12-29T12:24:23.177Z,96689.13
2022-12-29T12:26:55.590Z,96696.31
2022-12-29T12:29:22.025Z,96699.78
2022-12-29T12:31:48.346Z,96694.47
2022-12-29T12:34:15.032Z,96694.47
2022-12-29T12:36:41.344Z,96700.88
2022-12-29T12:39:07.671Z,96681.41
2022-12-29T12:41:33.934Z,96692.06
2022-12-29T12:44:00.803Z,96693.13
2022-12-29T12:46:27.176Z,96704.06
2022-12-29T12:48:53.443Z,96701.41
2022-12-29T12:51:19.701Z,96707.00
2022-12-29T12:53:46.031Z,96699.81
2022-12-29T12:56:12.313Z,96709.66
2022-12-29T12:58:38.617Z,96701.41
2022-12-29T13:01:06.218Z,96704.34
2022-12-29T13:03:32.610Z,96722.19
2022-12-29T13:05:59.044Z,96725.66
2022-12-29T13:08:25.300Z,96732.84
2022-12-29T13:10:53.423Z,96735.25
2022-12-29T13:13:20.003Z,96719.28
2022-12-29T13:15:46.414Z,96714.44
2022-12-29T13:18:13.093Z,96721.38
2022-12-29T13:20:39.452Z,96728.31
2022-12-29T13:23:05.726Z,96733.91
2022-12-29T13:25:31.986Z,96732.31
2022-12-29T13:27:58.317Z,96744.84
2022-12-29T13:30:24.711Z,96737.94
2022-12-29T13:32:50.989Z,96741.38
2022-12-29T13:35:17.385Z,96741.38
2022-12-29T13:37:43.659Z,96746.69
2022-12-29T13:40:09.988Z,96750.16
2022-12-29T13:42:36.280Z,96760.84
2022-12-29T13:45:03.169Z,96759.75
2022-12-29T13:47:29.541Z,96761.38
2022-12-29T13:49:55.959Z,96767.50
2022-12-29T13:52:22.196Z,96771.75
2022-12-29T13:54:48.472Z,96770.69
2022-12-29T13:57:14.746Z,96778.44
2022-12-29T13:59:41.005Z,96783.75
2022-12-29T14:02:07.476Z,96780.81
2022-12-29T14:04:33.925Z,96781.34
2022-12-29T14:07:00.283Z,96784.81
2022-12-29T14:09:30.360Z,96789.34
2022-12-29T14:11:59.832Z,96799.75
2022-12-29T14:14:26.433Z,96792.78
2022-12-29T14:16:53.020Z,96792.03
2022-12-29T14:19:19.353Z,96798.13
2022-12-29T14:21:45.637Z,96800.00
2022-12-29T14:24:11.963Z,96803.47
2022-12-29T14:26:38.387Z,96804.53
2022-12-29T14:29:05.226Z,96797.59
2022-12-29T14:31:31.771Z,96804.53
2022-12-29T14:33:58.098Z,96810.91
2022-12-29T14:36:24.516Z,96813.59
2022-12-29T14:38:50.768Z,96805.59
2022-12-29T14:41:20.664Z,96815.19
2022-12-29T14:43:47.466Z,96813.59
2022-12-29T14:46:16.614Z,96820.00
2022-12-29T14:48:43.069Z,96827.19
2022-12-29T14:51:10.519Z,96833.31
2022-12-29T14:53:36.766Z,96832.50
2022-12-29T14:56:03.049Z,96837.06
2022-12-29T14:58:29.376Z,96830.13
2022-12-29T15:00:55.979Z,96835.44
2022-12-29T15:03:22.393Z,96839.97
2022-12-29T15:05:48.721Z,96833.88
2022-12-29T15:08:15.065Z,96839.19
2022-12-29T15:10:41.408Z,96844.00
2022-12-29T15:13:07.689Z,96849.31
2022-12-29T15:15:33.999Z,96855.97
2022-12-29T15:18:00.386Z,96857.03
2022-12-29T15:20:26.641Z,96867.47
2022-12-29T15:22:53.160Z,96878.09
2022-12-29T15:25:19.455Z,96885.06
2022-12-29T15:27:45.763Z,96888.50
2022-12-29T15:30:17.673Z,96890.84
2022-12-29T15:32:44.414Z,96909.47
2022-12-29T15:35:10.727Z,96905.97
2022-12-29T15:37:37.080Z,96906.75
2022-12-29T15:40:03.434Z,96908.53
2022-12-29T15:42:29.716Z,96913.00
2022-12-29T15:45:09.481Z,96916.41
2022-12-29T15:47:36.388Z,96921.66
2022-12-29T15:50:03.852Z,96917.56
2022-12-29T15:52:30.170Z,96919.16
2022-12-29T15:54:56.403Z,96922.78
2022-12-29T15:57:23.010Z,96923.81
2022-12-29T15:59:49.316Z,96934.94
2022-12-29T16:02:15.649Z,96930.06
2022-12-29T16:05:08.764Z,96929.75
2022-12-29T16:07:28.288Z,96926.19
2022-12-29T16:09:55.001Z,96923.41
2022-12-29T16:12:21.296Z,96917.44
2022-12-29T16:14:47.584Z,96925.94
2022-12-29T16:17:14.035Z,96916.78
2022-12-29T16:19:40.343Z,96916.72
2022-12-29T16:22:06.694Z,96922.84
2022-12-29T16:24:33.111Z,96927.38
2022-12-29T16:26:59.496Z,96938.53
2022-12-29T16:29:25.821Z,96929.34
2022-12-29T16:31:52.138Z,96936.25
2022-12-29T16:34:18.475Z,96934.56
2022-12-29T16:36:44.754Z,96930.75
2022-12-29T16:39:11.102Z,96934.19
2022-12-29T16:41:37.442Z,96927.94
2022-12-29T16:44:03.815Z,96937.25
2022-12-29T16:46:30.229Z,96934.22
2022-12-29T16:48:56.567Z,96937.91
2022-12-29T16:51:22.962Z,96935.72
2022-12-29T16:53:49.278Z,96933.81
2022-12-29T16:56:15.620Z,96940.34
2022-12-29T16:58:44.388Z,96937.59
2022-12-29T17:01:14.037Z,96933.69
2022-12-29T17:03:40.440Z,96932.78
2022-12-29T17:06:06.891Z,96943.47
2022-12-29T17:08:33.205Z,96935.44
2022-12-29T17:10:59.569Z,96943.19
2022-12-29T17:13:25.851Z,96946.38
2022-12-29T17:15:52.096Z,96951.97
2022-12-29T17:18:18.398Z,96948.69
2022-12-29T17:20:44.661Z,96948.91
2022-12-29T17:23:10.976Z,96953.09
2022-12-29T17:25:37.335Z,96954.09
2022-12-29T17:28:03.646Z,96953.81
2022-12-29T17:30:33.808Z,96952.75
2022-12-29T17:33:00.675Z,96959.59
2022-12-29T17:35:26.934Z,96963.94
2022-12-29T17:37:53.253Z,96964.41
2022-12-29T17:40:19.567Z,96967.41
2022-12-29T17:42:45.861Z,96968.75
2022-12-29T17:45:12.159Z,96954.03
2022-12-29T17:47:38.470Z,96951.41
2022-12-29T17:50:04.826Z,96948.00
2022-12-29T17:52:31.106Z,96943.03
2022-12-29T17:54:57.359Z,96945.78
2022-12-29T17:57:23.652Z,96939.69
2022-12-29T17:59:50.059Z,96945.72
2022-12-29T18:02:16.501Z,96954.41
2022-12-29T18:04:42.939Z,96953.19
2022-12-29T18:07:09.273Z,96953.53
2022-12-29T18:09:35.955Z,96958.44
2022-12-29T18:12:02.261Z,96949.44
2022-12-29T18:14:28.640Z,96955.94
2022-12-29T18:16:55.311Z,96959.28
2022-12-29T18:19:21.754Z,96961.22
2022-12-29T18:21:48.117Z,96970.09
2022-12-29T18:24:14.403Z,96965.03
2022-12-29T18:26:40.780Z,96968.81
2022-12-29T18:29:07.217Z,96964.22
2022-12-29T18:31:33.610Z,96962.28
2022-12-29T18:34:00.555Z,96970.78
2022-12-29T18:36:26.874Z,96960.72
2022-12-29T18:38:53.141Z,96963.31
2022-12-29T18:41:19.409Z,96964.25
2022-12-29T18:43:45.799Z,96971.69
2022-12-29T18:46:14.883Z,96972.91
2022-12-29T18:48:43.727Z,96974.66
2022-12-29T18:51:10.118Z,96982.03
2022-12-29T18:53:36.398Z,96981.19
2022-12-29T18:56:02.753Z,96976.25
2022-12-29T18:58:34.006Z,96986.31
2022-12-29T19:01:01.239Z,96982.28
2022-12-29T19:03:27.780Z,96983.50
2022-12-29T19:05:53.967Z,96980.16
2022-12-29T19:08:20.199Z,96981.16
2022-12-29T19:10:46.579Z,96981.38
2022-12-29T19:13:12.924Z,96986.38
2022-12-29T19:15:39.246Z,96979.81
2022-12-29T19:18:42.290Z,96974.66
2022-12-29T19:20:52.230Z,96973.28
2022-12-29T19:23:18.505Z,96970.31
2022-12-29T19:25:44.790Z,96984.03
2022-12-29T19:28:11.043Z,96981.13
2022-12-29T19:30:37.370Z,96992.44
2022-12-29T19:33:09.485Z,96985.28
2022-12-29T19:35:36.294Z,96981.06
2022-12-29T19:38:02.629Z,96977.19
2022-12-29T19:40:28.906Z,96974.38
2022-12-29T19:42:55.261Z,96970.13
2022-12-29T19:45:21.758Z,96971.88
2022-12-29T19:47:48.013Z,96971.44
2022-12-29T19:50:14.369Z,96974.78
2022-12-29T19:52:41.617Z,96975.94
2022-12-29T19:55:08.348Z,96964.78
2022-12-29T19:57:34.716Z,96960.88
2022-12-29T20:00:02.375Z,96956.16
2022-12-29T20:02:28.765Z,96960.28
2022-12-29T20:04:55.391Z,96962.81
2022-12-29T20:07:21.701Z,96966.91
2022-12-29T20:09:48.050Z,96964.81
2022-12-29T20:12:14.343Z,96971.81
2022-12-29T20:14:40.622Z,96979.84
2022-12-29T20:17:11.585Z,96986.75
2022-12-29T20:19:38.209Z,96999.03
2022-12-29T20:22:04.690Z,96993.91
2022-12-29T20:24:30.987Z,97000.00
2022-12-29T20:26:57.262Z,97000.38
2022-12-29T20:29:23.558Z,97000.03
2022-12-29T20:31:49.848Z,97004.75
2022-12-29T20:34:16.204Z,97015.13
2022-12-29T20:36:42.465Z,97021.00
2022-12-29T20:39:08.732Z,97021.78
2022-12-29T20:41:35.117Z,97025.28
2022-12-29T20:44:01.413Z,97025.78
2022-12-29T20:46:33.988Z,97031.16
2022-12-29T20:49:02.841Z,97032.47
2022-12-29T20:51:29.129Z,97030.78
2022-12-29T20:53:55.394Z,97030.72
2022-12-29T20:56:21.699Z,97034.72
2022-12-29T20:59:25.204Z,97030.38
2022-12-29T21:01:34.382Z,97034.13
2022-12-29T21:04:00.769Z,97042.19
2022-12-29T21:06:27.036Z,97040.09
2022-12-29T21:08:53.423Z,97029.94
2022-12-29T21:11:19.777Z,97035.84
2022-12-29T21:13:46.014Z,97040.22
2022-12-29T21:16:12.275Z,97034.66
2022-12-29T21:18:38.622Z,97032.03
2022-12-29T21:21:05.207Z,97043.91
2022-12-29T21:23:31.520Z,97042.66
2022-12-29T21:25:57.984Z,97047.31
2022-12-29T21:28:24.271Z,97051.13
2022-12-29T21:30:50.698Z,97049.56
2022-12-29T21:33:17.104Z,97059.06
2022-12-29T21:35:43.467Z,97051.06
2022-12-29T21:38:09.729Z,97057.25
2022-12-29T21:40:36.134Z,97062.38
2022-12-29T21:43:02.524Z,97068.84
2022-12-29T21:45:28.828Z,97072.88
2022-12-29T21:47:55.095Z,97068.63
2022-12-29T21:50:21.353Z,97068.91
2022-12-29T21:52:47.651Z,97075.34
2022-12-29T21:55:13.949Z,97087.16
2022-12-29T21:57:40.255Z,97091.41
2022-12-29T22:00:06.528Z,97091.72
2022-12-29T22:02:33.000Z,97084.75
2022-12-29T22:04:59.448Z,97096.78
2022-12-29T22:07:26.532Z,97104.03
2022-12-29T22:09:52.886Z,97108.31
2022-12-29T22:12:19.149Z,97111.81
2022-12-29T22:14:45.439Z,97115.53
2022-12-29T22:17:14.306Z,97127.66
2022-12-29T22:19:40.925Z,97127.66
2022-12-29T22:22:13.182Z,97126.84
2022-12-29T22:24:39.505Z,97131.97
2022-12-29T22:27:08.967Z,97132.31
2022-12-29T22:29:35.269Z,97130.19
2022-12-29T22:32:01.539Z,97120.31
2022-12-29T22:34:27.796Z,97116.88
2022-12-29T22:36:54.031Z,97115.31
2022-12-29T22:39:20.331Z,97112.16
2022-12-29T22:41:46.604Z,97100.97
2022-12-29T22:44:12.900Z,97117.09
2022-12-29T22:46:39.285Z,97113.94
2022-12-29T22:49:05.984Z,97116.09
2022-12-29T22:51:32.273Z,97112.13
2022-12-29T22:53:58.680Z,97110.03
2022-12-29T22:56:24.948Z,97109.56
2022-12-29T22:58:51.181Z,97125.41
2022-12-29T23:01:17.519Z,97128.66
2022-12-29T23:03:43.944Z,97128.44
2022-12-29T23:06:10.259Z,97127.13
2022-12-29T23:08:36.625Z,97136.53
2022-12-29T23:11:02.933Z,97129.34
2022-12-29T23:13:29.526Z,97133.41
2022-12-29T23:15:56.268Z,97132.06
2022-12-29T23:18:22.609Z,97136.88
2022-12-29T23:20:48.975Z,97128.63
2022-12-29T23:23:15.317Z,97120.09
2022-12-29T23:25:41.857Z,97121.72
2022-12-29T23:28:08.126Z,97109.69
2022-12-29T23:30:35.883Z,97123.34
2022-12-29T23:33:02.148Z,97124.69
2022-12-29T23:35:28.522Z,97122.56
2022-12-29T23:37:54.790Z,97135.41
2022-12-29T23:40:24.223Z,97148.22
2022-12-29T23:42:50.532Z,97147.66
2022-12-29T23:45:17.017Z,97149.78
2022-12-29T23:47:43.385Z,97153.78
2022-12-29T23:50:09.758Z,97155.94
2022-12-29T23:52:36.113Z,97173.00
2022-12-29T23:55:02.391Z,97172.47
2022-12-29T23:57:28.777Z,97175.41
2022-12-29T23:59:55.104Z,97172.19
